Time;durP1;ratioP1;P1;durP2;ratioP2;P2;SDS_P1;SDS_P2;PMS_P1;PMS_P2;Temp;Humidity;BMP_temperature;BMP_pressure;BME280_temperature;BME280_humidity;BME280_pressure;Samples;Min_cycle;Max_cycle;Signal;HPM_P1;HPM_P2
2022/05/04 00:00:13;;;;;;;11.68;9.30;;;11.20;99.90;;;;;;5040771;28;20040;-49
2022/05/04 00:02:40;;;;;;;11.25;9.35;;;11.00;99.90;;;;;;5014381;28;20041;-47
2022/05/04 00:05:07;;;;;;;13.25;9.82;;;10.80;99.90;;;;;;5035613;28;20076;-46
2022/05/04 00:07:33;;;;;;;13.90;9.90;;;10.80;99.90;;;;;;5032018;28;20512;-46
2022/05/04 00:09:59;;;;;;;14.07;9.02;;;10.90;99.90;;;;;;5032247;28;20185;-45
2022/05/04 00:12:25;;;;;;;14.73;9.88;;;10.80;99.90;;;;;;5040246;28;20440;-48
2022/05/04 00:14:51;;;;;;;16.58;11.43;;;11.10;99.90;;;;;;5058316;28;20029;-47
2022/05/04 00:17:17;;;;;;;21.13;12.57;;;11.50;99.90;;;;;;5054795;28;20460;-48
2022/05/04 00:19:43;;;;;;;17.73;13.20;;;11.70;99.90;;;;;;5056160;28;20104;-48
2022/05/04 00:22:09;;;;;;;21.00;14.38;;;11.90;99.90;;;;;;5053260;28;20021;-48
2022/05/04 00:24:35;;;;;;;15.27;11.00;;;12.00;99.90;;;;;;5055198;28;20032;-48
2022/05/04 00:27:01;;;;;;;15.10;9.65;;;12.10;99.90;;;;;;5057655;28;20098;-46
2022/05/04 00:29:27;;;;;;;12.95;9.10;;;11.90;99.90;;;;;;5035092;28;20480;-46
2022/05/04 00:31:52;;;;;;;10.98;8.27;;;11.70;99.90;;;;;;5055130;28;20021;-45
2022/05/04 00:34:18;;;;;;;11.40;8.50;;;11.90;99.90;;;;;;5055141;28;20029;-48
2022/05/04 00:36:44;;;;;;;11.15;8.88;;;11.70;99.90;;;;;;5058253;28;20448;-44
2022/05/04 00:39:10;;;;;;;12.55;9.30;;;11.60;99.90;;;;;;5052976;28;20025;-47
2022/05/04 00:41:35;;;;;;;13.98;10.05;;;11.80;99.90;;;;;;5053442;28;20040;-48
2022/05/04 00:44:01;;;;;;;13.23;9.48;;;11.90;99.90;;;;;;5032690;28;20036;-47
2022/05/04 00:46:27;;;;;;;15.05;10.95;;;12.00;99.90;;;;;;5054652;28;20028;-46
2022/05/04 00:48:53;;;;;;;9.52;7.50;;;12.10;99.90;;;;;;5052795;28;20127;-49
2022/05/04 00:51:19;;;;;;;10.93;7.13;;;12.20;99.90;;;;;;5057874;28;20035;-46
2022/05/04 00:53:45;;;;;;;13.57;9.65;;;12.30;99.90;;;;;;5056350;28;20374;-49
2022/05/04 00:56:11;;;;;;;14.60;10.27;;;12.40;99.90;;;;;;5057602;28;20353;-46
2022/05/04 00:58:56;;;;;;;13.88;10.95;;;12.40;99.90;;;;;;5054053;28;20056;-47
2022/05/04 01:01:27;;;;;;;10.75;9.25;;;12.40;99.90;;;;;;5059942;28;20350;-48
2022/05/04 01:03:58;;;;;;;15.63;11.20;;;12.50;99.90;;;;;;5052862;28;20031;-48
2022/05/04 01:06:26;;;;;;;10.07;7.80;;;12.60;99.90;;;;;;5055188;28;20035;-47
2022/05/04 01:08:53;;;;;;;11.50;9.05;;;12.60;99.90;;;;;;5054391;28;20040;-47
2022/05/04 01:11:20;;;;;;;12.20;7.70;;;12.70;99.90;;;;;;5056168;28;20053;-46
2022/05/04 01:14:00;;;;;;;9.63;7.70;;;12.60;99.90;;;;;;5057023;28;20028;-46
2022/05/04 01:16:27;;;;;;;8.88;7.40;;;12.60;99.90;;;;;;5033198;28;20045;-48
2022/05/04 01:18:52;;;;;;;15.13;9.10;;;12.30;99.90;;;;;;5052741;28;20376;-47
2022/05/04 01:21:18;;;;;;;12.20;8.93;;;12.10;99.90;;;;;;5057732;28;20031;-47
2022/05/04 01:23:45;;;;;;;11.98;8.82;;;11.40;99.90;;;;;;5054951;28;20025;-48
2022/05/04 01:26:10;;;;;;;10.90;9.00;;;11.50;99.90;;;;;;5061068;28;20029;-46
2022/05/04 01:28:36;;;;;;;10.38;9.18;;;11.70;99.90;;;;;;5035491;28;20484;-47
2022/05/04 01:31:02;;;;;;;14.95;10.15;;;11.80;99.90;;;;;;5034893;28;20090;-49
2022/05/04 01:33:27;;;;;;;12.55;9.77;;;11.90;99.90;;;;;;5033790;28;20075;-47
2022/05/04 01:35:53;;;;;;;16.25;11.00;;;12.00;99.90;;;;;;5056156;28;20108;-48
2022/05/04 01:38:19;;;;;;;13.45;11.75;;;11.90;99.90;;;;;;5055432;28;20021;-46
2022/05/04 01:40:45;;;;;;;16.85;12.90;;;12.00;99.90;;;;;;5040129;28;20119;-47
2022/05/04 01:43:11;;;;;;;18.40;12.40;;;12.10;99.90;;;;;;5059293;28;20552;-47
2022/05/04 01:45:36;;;;;;;18.15;13.70;;;12.00;99.90;;;;;;5056149;28;20029;-48
2022/05/04 01:48:02;;;;;;;19.75;15.45;;;12.10;99.90;;;;;;5059639;28;20056;-46
2022/05/04 01:50:28;;;;;;;19.33;14.93;;;11.80;99.90;;;;;;5037322;28;20037;-50
2022/05/04 01:52:54;;;;;;;19.42;15.30;;;11.30;99.90;;;;;;5058939;28;20045;-49
2022/05/04 01:55:20;;;;;;;18.27;14.10;;;11.10;99.90;;;;;;5055879;28;20032;-46
2022/05/04 01:57:46;;;;;;;21.15;14.63;;;10.80;99.90;;;;;;5059297;28;20099;-47
2022/05/04 02:00:12;;;;;;;17.17;15.10;;;10.80;99.90;;;;;;5058301;28;20021;-49
2022/05/04 02:02:38;;;;;;;20.17;15.15;;;11.10;99.90;;;;;;5037842;28;20095;-48
2022/05/04 02:05:05;;;;;;;18.80;15.23;;;11.30;99.90;;;;;;5029659;28;20033;-47
2022/05/04 02:07:33;;;;;;;26.02;17.42;;;11.50;99.90;;;;;;5056688;28;20025;-48
2022/05/04 02:09:59;;;;;;;25.52;17.27;;;11.60;99.90;;;;;;5056587;28;20036;-46
2022/05/04 02:12:27;;;;;;;25.33;17.80;;;11.80;99.90;;;;;;5060156;28;20449;-49
2022/05/04 02:14:53;;;;;;;19.45;16.73;;;11.90;99.90;;;;;;5060596;28;20021;-47
2022/05/04 02:17:19;;;;;;;25.50;18.95;;;12.00;99.90;;;;;;5038929;28;20094;-47
2022/05/04 02:19:45;;;;;;;25.25;21.67;;;12.00;99.90;;;;;;5070830;28;20037;-49
2022/05/04 02:22:10;;;;;;;30.13;21.50;;;11.90;99.90;;;;;;5031144;28;20041;-49
2022/05/04 02:24:36;;;;;;;28.42;20.73;;;11.90;99.90;;;;;;5057880;28;20049;-49
2022/05/04 02:27:02;;;;;;;31.55;21.38;;;11.90;99.90;;;;;;5055325;28;20021;-45
2022/05/04 02:29:29;;;;;;;31.95;21.52;;;11.90;99.90;;;;;;5059072;28;20574;-48
2022/05/04 02:31:58;;;;;;;29.35;24.95;;;12.00;99.90;;;;;;5035734;28;20048;-47
2022/05/04 02:34:24;;;;;;;30.85;24.50;;;12.00;99.90;;;;;;5059139;28;20103;-48
2022/05/04 02:39:34;;;;;;;24.45;21.05;;;12.00;99.90;;;;;;5058127;28;20171;-46
2022/05/04 02:42:00;;;;;;;24.33;19.55;;;12.00;99.90;;;;;;5036256;28;20120;-46
2022/05/04 02:44:26;;;;;;;25.83;20.67;;;12.00;99.90;;;;;;5058259;28;20025;-47
2022/05/04 02:46:52;;;;;;;31.65;20.80;;;11.90;99.90;;;;;;5031375;28;20040;-46
2022/05/04 02:49:18;;;;;;;28.77;20.17;;;12.00;99.90;;;;;;5055238;28;20920;-47
2022/05/04 02:51:44;;;;;;;26.13;19.42;;;12.00;99.90;;;;;;5057012;28;20078;-46
2022/05/04 02:54:10;;;;;;;22.92;18.40;;;12.00;99.90;;;;;;5057856;28;20055;-46
2022/05/04 02:56:36;;;;;;;30.23;18.77;;;12.00;99.90;;;;;;5057321;28;20436;-47
2022/05/04 02:59:03;;;;;;;25.35;19.75;;;12.00;99.90;;;;;;5055565;28;20029;-47
2022/05/04 03:04:13;;;;;;;25.25;20.05;;;11.80;99.90;;;;;;5039602;28;20281;-46
2022/05/04 03:06:40;;;;;;;27.45;20.02;;;11.70;99.90;;;;;;5057182;28;20032;-49
2022/05/04 03:09:08;;;;;;;33.40;20.13;;;11.80;99.90;;;;;;5058278;28;20373;-49
2022/05/04 03:14:20;;;;;;;27.98;20.85;;;11.80;99.90;;;;;;5057762;28;20043;-49
2022/05/04 03:16:47;;;;;;;26.65;20.58;;;11.80;99.90;;;;;;5054726;28;20037;-47
2022/05/04 03:19:14;;;;;;;29.83;19.77;;;11.90;99.90;;;;;;5057144;28;20358;-47
2022/05/04 03:21:40;;;;;;;26.75;18.25;;;11.90;99.90;;;;;;5055413;28;20025;-45
2022/05/04 03:24:06;;;;;;;27.48;18.50;;;11.90;99.90;;;;;;5057147;28;20131;-48
2022/05/04 03:26:32;;;;;;;26.35;17.27;;;11.90;99.90;;;;;;5018831;28;20036;-48
2022/05/04 03:28:58;;;;;;;23.48;17.48;;;11.90;99.90;;;;;;5058445;28;20435;-49
2022/05/04 03:31:24;;;;;;;21.52;17.55;;;11.90;99.90;;;;;;5058517;28;20031;-48
2022/05/04 03:33:50;;;;;;;26.88;17.35;;;11.90;99.90;;;;;;5054254;28;20100;-45
2022/05/04 03:36:16;;;;;;;25.77;18.75;;;11.80;99.90;;;;;;5053954;28;20029;-49
2022/05/04 03:38:44;;;;;;;24.88;18.27;;;11.60;99.90;;;;;;5058201;28;20465;-48
2022/05/04 03:41:10;;;;;;;22.20;17.35;;;11.30;99.90;;;;;;5058599;28;20033;-46
2022/05/04 03:43:36;;;;;;;26.23;18.50;;;11.50;99.90;;;;;;5057636;28;20024;-46
2022/05/04 03:46:24;;;;;;;24.88;18.58;;;11.60;99.90;;;;;;5051773;28;20040;-45
2022/05/04 03:48:57;;;;;;;23.42;16.35;;;11.70;99.90;;;;;;5037793;28;20553;-48
2022/05/04 03:51:23;;;;;;;29.63;17.55;;;11.80;99.90;;;;;;5057929;28;20028;-48
2022/05/04 03:53:50;;;;;;;19.05;16.10;;;11.80;99.90;;;;;;5057955;28;20051;-47
2022/05/04 03:56:17;;;;;;;24.30;16.23;;;11.80;99.90;;;;;;5053756;28;20090;-45
2022/05/04 03:58:43;;;;;;;21.30;15.15;;;11.80;99.90;;;;;;5056450;28;20699;-46
2022/05/04 04:01:10;;;;;;;24.75;15.35;;;11.90;99.90;;;;;;5055237;28;20029;-45
2022/05/04 04:03:35;;;;;;;31.48;16.00;;;11.80;99.90;;;;;;5056100;28;20025;-47
2022/05/04 04:06:01;;;;;;;26.77;15.55;;;11.90;99.90;;;;;;5057825;28;20417;-47
2022/05/04 04:08:28;;;;;;;24.10;15.63;;;11.90;99.90;;;;;;5057296;28;20163;-44
2022/05/04 04:10:53;;;;;;;21.02;14.93;;;11.90;99.90;;;;;;5055013;28;20025;-47
2022/05/04 04:13:19;;;;;;;23.98;15.30;;;12.00;99.90;;;;;;5056475;28;20090;-44
2022/05/04 04:15:47;;;;;;;21.77;16.75;;;12.10;99.90;;;;;;5034516;28;20036;-44
2022/05/04 04:18:13;;;;;;;27.13;15.90;;;12.10;99.90;;;;;;5053645;28;20032;-45
2022/05/04 04:23:23;;;;;;;23.95;16.60;;;12.10;99.90;;;;;;5061411;28;20039;-48
2022/05/04 04:25:49;;;;;;;23.75;16.15;;;12.10;99.90;;;;;;5053874;28;20033;-45
2022/05/04 04:28:14;;;;;;;26.13;15.48;;;12.10;99.90;;;;;;5053803;28;20029;-46
2022/05/04 04:30:40;;;;;;;22.95;16.10;;;12.10;99.90;;;;;;5058829;28;20029;-48
2022/05/04 04:33:07;;;;;;;22.17;15.52;;;12.10;99.90;;;;;;5053533;28;20033;-47
2022/05/04 04:35:36;;;;;;;25.17;16.50;;;12.10;99.90;;;;;;5037324;28;20037;-45
2022/05/04 04:38:02;;;;;;;20.15;16.42;;;12.20;99.90;;;;;;5055241;28;20059;-47
2022/05/04 04:40:28;;;;;;;39.42;18.73;;;12.20;99.90;;;;;;5032404;28;20029;-48
2022/05/04 04:42:54;;;;;;;20.45;16.17;;;12.20;99.90;;;;;;5030748;28;20108;-47
2022/05/04 04:45:19;;;;;;;18.83;15.27;;;12.30;99.90;;;;;;5029628;28;20042;-49
2022/05/04 04:47:46;;;;;;;21.20;15.98;;;12.40;99.90;;;;;;5034784;28;20027;-47
2022/05/04 04:50:12;;;;;;;19.67;14.93;;;12.50;99.90;;;;;;5030669;28;20049;-46
2022/05/04 04:52:37;;;;;;;19.83;14.95;;;12.70;99.90;;;;;;5033549;28;20072;-47
2022/05/04 04:55:04;;;;;;;19.75;15.50;;;12.80;99.90;;;;;;5031880;28;20224;-48
2022/05/04 04:57:30;;;;;;;22.75;16.52;;;12.90;99.90;;;;;;5032301;28;20021;-45
2022/05/04 04:59:56;;;;;;;32.17;18.13;;;12.90;99.90;;;;;;5031220;28;20049;-46
2022/05/04 05:02:22;;;;;;;22.30;16.10;;;13.10;99.90;;;;;;5034246;28;20034;-44
2022/05/04 05:04:48;;;;;;;22.85;16.27;;;;;;;;;;5032290;28;20032;-48
2022/05/04 05:07:14;;;;;;;23.05;16.25;;;13.50;99.90;;;;;;5030323;28;20167;-49
2022/05/04 05:09:39;;;;;;;23.95;17.35;;;13.60;99.90;;;;;;5019343;28;20479;-48
2022/05/04 05:12:06;;;;;;;23.83;17.17;;;;;;;;;;5032258;28;20041;-47
2022/05/04 05:17:16;;;;;;;22.65;17.15;;;14.00;99.90;;;;;;5057523;28;20039;-49
2022/05/04 05:19:41;;;;;;;20.17;16.85;;;14.20;99.90;;;;;;5059142;28;20473;-48
2022/05/04 05:22:07;;;;;;;24.75;17.73;;;14.30;99.90;;;;;;5053904;28;20094;-45
2022/05/04 05:24:33;;;;;;;22.25;17.17;;;14.40;99.90;;;;;;5009193;28;20034;-46
2022/05/04 05:26:59;;;;;;;21.48;18.75;;;14.40;99.90;;;;;;5041849;28;20066;-47
2022/05/04 05:29:24;;;;;;;28.23;17.38;;;14.40;99.90;;;;;;5054181;28;20037;-46
2022/05/04 05:31:50;;;;;;;21.63;16.70;;;14.40;99.90;;;;;;5056401;28;20037;-46
2022/05/04 05:34:16;;;;;;;24.27;19.13;;;14.60;99.90;;;;;;5057393;28;20032;-47
2022/05/04 05:36:41;;;;;;;25.30;19.63;;;14.50;99.90;;;;;;5038128;28;20048;-46
2022/05/04 05:39:07;;;;;;;23.92;19.45;;;14.40;99.90;;;;;;5062229;28;20128;-47
2022/05/04 05:41:33;;;;;;;26.40;19.08;;;14.60;99.90;;;;;;5056261;28;20055;-46
2022/05/04 05:43:59;;;;;;;24.30;19.65;;;;;;;;;;5056103;28;20032;-47
2022/05/04 05:46:25;;;;;;;21.40;16.98;;;14.80;99.90;;;;;;5052939;28;20553;-46
2022/05/04 05:48:50;;;;;;;19.40;14.25;;;15.00;99.90;;;;;;5057229;28;20068;-47
2022/05/04 05:51:16;;;;;;;16.73;14.52;;;15.20;99.90;;;;;;5039339;28;20047;-49
2022/05/04 05:53:42;;;;;;;19.75;15.70;;;15.40;99.90;;;;;;5060385;28;20366;-45
2022/05/04 05:56:08;;;;;;;20.98;15.32;;;15.50;99.90;;;;;;5055976;28;20036;-45
2022/05/04 05:58:33;;;;;;;17.13;14.00;;;15.80;99.90;;;;;;5037040;28;20044;-48
2022/05/04 06:00:59;;;;;;;16.45;12.23;;;15.90;99.90;;;;;;5057191;28;20107;-48
2022/05/04 06:03:25;;;;;;;20.33;12.15;;;15.90;99.90;;;;;;5039639;28;20029;-46
2022/05/04 06:05:51;;;;;;;16.88;12.25;;;16.00;99.90;;;;;;5064094;28;20076;-45
2022/05/04 06:08:16;;;;;;;14.65;11.52;;;16.20;99.90;;;;;;5057508;28;20758;-46
2022/05/04 06:10:42;;;;;;;12.88;10.90;;;16.20;99.90;;;;;;5056786;28;20021;-48
2022/05/04 06:13:08;;;;;;;14.30;11.02;;;16.30;99.90;;;;;;5058766;28;20468;-46
2022/05/04 06:15:34;;;;;;;17.25;12.73;;;;;;;;;;5055265;28;20021;-47
2022/05/04 06:18:01;;;;;;;14.45;10.10;;;16.50;99.90;;;;;;5055872;28;20037;-47
2022/05/04 06:20:27;;;;;;;22.13;10.73;;;16.50;99.90;;;;;;5054500;28;20090;-48
2022/05/04 06:22:53;;;;;;;14.75;10.85;;;16.60;99.90;;;;;;5011842;28;20052;-47
2022/05/04 06:25:19;;;;;;;16.00;12.07;;;16.50;99.90;;;;;;5056051;28;20037;-49
2022/05/04 06:27:45;;;;;;;15.52;11.85;;;16.50;99.90;;;;;;5054366;28;20036;-48
2022/05/04 06:35:39;;;;;;;13.50;10.90;;;16.60;99.90;;;;;;5057346;28;20094;-48
2022/05/04 06:38:05;;;;;;;11.75;9.82;;;16.80;99.90;;;;;;5053290;28;20048;-49
2022/05/04 06:40:31;;;;;;;11.95;9.07;;;16.90;99.90;;;;;;5055218;28;20044;-46
2022/05/04 06:42:57;;;;;;;13.43;9.50;;;16.90;99.90;;;;;;5038841;28;20032;-44
2022/05/04 06:45:23;;;;;;;16.08;9.50;;;17.00;99.90;;;;;;5054860;28;20029;-42
2022/05/04 06:47:49;;;;;;;19.98;11.77;;;;;;;;;;5035260;28;20128;-43
2022/05/04 06:50:17;;;;;;;16.70;12.55;;;;;;;;;;5058092;28;20037;-46
2022/05/04 06:52:43;;;;;;;14.52;11.88;;;17.70;99.90;;;;;;5059212;28;20040;-42
2022/05/04 06:55:09;;;;;;;21.85;12.80;;;17.80;99.90;;;;;;5064788;28;20041;-44
2022/05/04 06:57:36;;;;;;;21.77;12.10;;;17.80;99.90;;;;;;5056531;28;20076;-46
2022/05/04 07:00:04;;;;;;;14.77;11.52;;;17.90;99.90;;;;;;5056478;28;20119;-42
2022/05/04 07:02:31;;;;;;;16.50;11.25;;;18.10;99.90;;;;;;5017094;28;20037;-44
2022/05/04 07:04:57;;;;;;;16.67;11.63;;;17.90;99.90;;;;;;5056244;28;20037;-45
2022/05/04 07:07:23;;;;;;;21.50;13.48;;;17.80;99.90;;;;;;5055405;28;20029;-43
2022/05/04 07:09:49;;;;;;;14.77;12.05;;;17.80;99.90;;;;;;5035615;28;20049;-43
2022/05/04 07:12:14;;;;;;;18.05;15.50;;;17.80;99.90;;;;;;5039390;28;20037;-44
2022/05/04 07:14:40;;;;;;;20.35;14.75;;;18.00;99.90;;;;;;5056629;28;20021;-42
2022/05/04 07:17:06;;;;;;;25.30;15.35;;;18.10;99.90;;;;;;5052168;28;20067;-44
2022/05/04 07:19:31;;;;;;;17.83;14.25;;;18.30;99.90;;;;;;5064920;28;20037;-45
2022/05/04 07:21:57;;;;;;;16.50;13.05;;;18.20;99.90;;;;;;5053840;28;20025;-44
2022/05/04 07:24:23;;;;;;;16.40;12.43;;;18.30;99.90;;;;;;5033473;28;20036;-47
2022/05/04 07:26:49;;;;;;;20.02;11.30;;;18.40;99.90;;;;;;5049975;28;20032;-46
2022/05/04 07:29:15;;;;;;;15.63;12.52;;;18.40;99.90;;;;;;5053310;28;20048;-44
2022/05/04 07:31:42;;;;;;;17.60;12.85;;;;;;;;;;5053979;28;20100;-44
2022/05/04 07:34:08;;;;;;;14.30;10.98;;;19.10;99.90;;;;;;5031530;28;20037;-49
2022/05/04 07:36:33;;;;;;;15.25;11.40;;;19.20;99.90;;;;;;5033010;28;20381;-43
2022/05/04 07:38:59;;;;;;;13.32;10.50;;;19.30;99.90;;;;;;5018181;28;20056;-47
2022/05/04 07:44:09;;;;;;;18.80;10.00;;;19.70;99.90;;;;;;5055352;28;20479;-47
2022/05/04 07:46:35;;;;;;;10.25;8.27;;;;;;;;;;5051522;28;20061;-46
2022/05/04 07:49:02;;;;;;;9.60;8.07;;;;;;;;;;5052850;28;20041;-46
2022/05/04 07:51:28;;;;;;;12.02;8.55;;;20.00;99.90;;;;;;5056675;28;20017;-43
2022/05/04 07:53:54;;;;;;;12.40;9.13;;;;;;;;;;5057825;28;20052;-44
2022/05/04 07:56:20;;;;;;;13.10;8.35;;;20.30;99.90;;;;;;5056385;28;20029;-46
2022/05/04 07:58:46;;;;;;;10.55;8.48;;;;;;;;;;5057130;28;20032;-46
2022/05/04 08:06:40;;;;;;;11.75;8.23;;;20.60;99.90;;;;;;5052449;28;20035;-44
2022/05/04 08:09:06;;;;;;;8.02;6.88;;;;;;;;;;5050656;28;20036;-46
2022/05/04 08:11:31;;;;;;;10.38;7.25;;;20.80;99.90;;;;;;5049520;28;20460;-45
2022/05/04 08:13:58;;;;;;;10.27;7.07;;;;;;;;;;5053471;28;20029;-44
2022/05/04 08:16:23;;;;;;;14.25;7.93;;;21.00;99.90;;;;;;5051830;28;20044;-47
2022/05/04 08:18:49;;;;;;;13.43;7.78;;;21.10;99.90;;;;;;5015257;28;20476;-45
2022/05/04 08:21:15;;;;;;;11.35;7.43;;;21.30;99.90;;;;;;5048858;28;20465;-44
2022/05/04 08:23:41;;;;;;;14.70;8.38;;;21.60;99.90;;;;;;5051205;28;20464;-46
2022/05/04 08:26:07;;;;;;;10.15;7.10;;;;;;;;;;5051621;28;20033;-44
2022/05/04 08:28:32;;;;;;;33.75;26.13;;;21.70;99.90;;;;;;5054834;28;20124;-47
2022/05/04 08:30:58;;;;;;;16.73;13.73;;;21.90;99.90;;;;;;5061206;28;20107;-45
2022/05/04 08:33:25;;;;;;;14.45;9.88;;;;;;;;;;5046886;28;20041;-46
2022/05/04 08:35:50;;;;;;;15.50;8.75;;;22.40;99.90;;;;;;5050999;28;20032;-46
2022/05/04 08:38:16;;;;;;;58.58;52.17;;;22.50;99.90;;;;;;5035917;28;20048;-45
2022/05/04 08:40:43;;;;;;;52.00;37.03;;;22.60;99.90;;;;;;5051468;28;20025;-45
2022/05/04 08:43:09;;;;;;;26.42;17.73;;;22.50;99.90;;;;;;5050596;28;20402;-46
2022/05/04 08:45:39;;;;;;;20.85;15.05;;;;;;;;;;5046313;28;20065;-45
2022/05/04 08:48:06;;;;;;;26.05;19.55;;;;;;;;;;5047158;28;20060;-43
2022/05/04 08:50:33;;;;;;;20.77;12.38;;;23.20;99.90;;;;;;5037325;28;20048;-44
2022/05/04 08:53:01;;;;;;;18.42;12.73;;;;;;;;;;5049979;28;20045;-45
2022/05/04 08:55:27;;;;;;;12.90;9.35;;;23.50;99.90;;;;;;5051117;28;20032;-43
2022/05/04 08:57:56;;;;;;;12.95;8.20;;;23.60;99.90;;;;;;5052409;28;20132;-44
2022/05/04 09:00:23;;;;;;;9.55;6.45;;;23.80;99.90;;;;;;5053432;28;20112;-42
2022/05/04 09:02:49;;;;;;;8.95;5.85;;;;;;;;;;5051346;28;20029;-44
2022/05/04 09:05:20;;;;;;;15.93;6.90;;;;;;;;;;5052940;28;20021;-45
2022/05/04 09:07:48;;;;;;;16.02;8.90;;;24.50;99.90;;;;;;5049524;28;20115;-46
2022/05/04 09:10:31;;;;;;;13.40;7.80;;;24.70;99.90;;;;;;5047212;28;20045;-41
2022/05/04 09:12:59;;;;;;;13.65;6.15;;;24.50;97.40;;;;;;5045728;28;20033;-41
2022/05/04 09:15:28;;;;;;;10.73;7.10;;;;;;;;;;5056099;28;20063;-42
2022/05/04 09:18:05;;;;;;;9.82;7.90;;;;;;;;;;5047967;28;20485;-43
2022/05/04 09:23:21;;;;;;;10.55;6.50;;;;;;;;;;5051179;28;20039;-42
2022/05/04 09:25:51;;;;;;;9.50;6.50;;;;;;;;;;5051621;28;20036;-43
2022/05/04 09:28:17;;;;;;;15.32;7.85;;;25.60;97.50;;;;;;5053177;28;20522;-42
2022/05/04 09:30:54;;;;;;;11.90;7.38;;;;;;;;;;5043397;28;20037;-42
2022/05/04 09:33:23;;;;;;;11.25;6.47;;;;;;;;;;5050990;28;20029;-42
2022/05/04 09:35:50;;;;;;;14.07;7.65;;;;;;;;;;5047103;28;20028;-42
2022/05/04 09:46:42;;;;;;;10.60;5.63;;;;;;;;;;5047312;28;20047;-43
2022/05/04 09:49:16;;;;;;;11.25;5.85;;;;;;;;;;5054711;28;20037;-43
2022/05/04 09:51:53;;;;;;;8.65;5.57;;;26.00;99.90;;;;;;5051219;28;20043;-44
2022/05/04 09:54:19;;;;;;;5.93;3.30;;;26.20;91.90;;;;;;5052248;28;20610;-45
2022/05/04 09:56:47;;;;;;;5.68;3.70;;;26.40;92.00;;;;;;5053642;28;20033;-45
2022/05/04 09:59:18;;;;;;;6.45;3.83;;;26.30;89.40;;;;;;5030479;28;20377;-44
2022/05/04 10:01:45;;;;;;;9.52;4.10;;;26.20;89.70;;;;;;5057386;28;20540;-43
2022/05/04 10:04:11;;;;;;;6.80;3.03;;;26.40;88.50;;;;;;5057214;28;20033;-44
2022/05/04 10:06:38;;;;;;;5.47;2.35;;;26.90;86.50;;;;;;5054302;28;20056;-44
2022/05/04 10:09:05;;;;;;;4.15;2.67;;;27.10;85.90;;;;;;5053305;28;20047;-45
2022/05/04 10:11:32;;;;;;;4.80;2.55;;;27.10;83.30;;;;;;5054697;28;20071;-46
2022/05/04 10:14:05;;;;;;;6.35;3.30;;;27.30;84.00;;;;;;5053706;28;20033;-47
2022/05/04 10:16:38;;;;;;;3.72;2.80;;;27.00;81.30;;;;;;5059374;28;20055;-46
2022/05/04 10:19:08;;;;;;;13.23;3.92;;;27.40;83.60;;;;;;5037127;28;20574;-46
2022/05/04 10:21:36;;;;;;;6.32;2.88;;;27.80;83.40;;;;;;5053270;28;20571;-46
2022/05/04 10:24:06;;;;;;;6.32;3.10;;;27.90;83.10;;;;;;5055485;28;20029;-46
2022/05/04 10:26:37;;;;;;;5.50;2.33;;;27.90;86.70;;;;;;4989003;28;20032;-46
2022/05/04 10:32:08;;;;;;;5.55;3.05;;;27.70;83.60;;;;;;5055483;28;20367;-46
2022/05/04 10:34:34;;;;;;;8.65;2.95;;;28.00;81.90;;;;;;5038738;28;20037;-46
2022/05/04 10:37:00;;;;;;;5.55;2.85;;;27.50;79.30;;;;;;5055577;28;20036;-46
2022/05/04 10:39:25;;;;;;;6.35;3.97;;;27.00;81.50;;;;;;5002280;28;20033;-46
2022/05/04 10:41:51;;;;;;;6.97;2.92;;;27.40;80.50;;;;;;5055642;28;20528;-45
2022/05/04 10:44:17;;;;;;;3.95;2.58;;;27.70;80.70;;;;;;5021762;28;20033;-46
2022/05/04 10:46:49;;;;;;;6.43;2.03;;;27.50;78.90;;;;;;5021100;28;20611;-45
2022/05/04 10:49:16;;;;;;;4.07;2.22;;;27.70;79.50;;;;;;5057305;28;20045;-46
2022/05/04 10:51:44;;;;;;;3.38;2.22;;;27.70;79.60;;;;;;5057250;28;20040;-45
2022/05/04 10:54:18;;;;;;;3.22;2.40;;;27.30;78.10;;;;;;5027742;28;20075;-45
2022/05/04 10:56:49;;;;;;;6.53;2.45;;;27.10;78.30;;;;;;5060473;28;20059;-45
2022/05/04 10:59:35;;;;;;;4.30;1.90;;;27.30;78.90;;;;;;5058023;28;20033;-46
2022/05/04 11:02:09;;;;;;;6.47;2.35;;;27.80;78.90;;;;;;5056982;28;20036;-46
2022/05/04 11:04:36;;;;;;;4.65;2.30;;;27.30;78.00;;;;;;5031298;28;20041;-45
2022/05/04 11:07:05;;;;;;;3.75;2.20;;;27.20;77.20;;;;;;5060804;28;20039;-46
2022/05/04 11:09:35;;;;;;;4.88;2.30;;;27.80;79.00;;;;;;5061232;28;20055;-46
2022/05/04 11:12:03;;;;;;;5.13;2.63;;;;;;;;;;5063614;28;20036;-46
2022/05/04 11:14:29;;;;;;;4.43;2.28;;;28.50;78.50;;;;;;5038143;28;20052;-46
2022/05/04 11:16:56;;;;;;;3.70;2.42;;;;;;;;;;5063314;28;20099;-46
2022/05/04 11:19:23;;;;;;;12.30;6.47;;;;;;;;;;5053609;28;20049;-46
2022/05/04 11:21:50;;;;;;;3.92;2.35;;;28.30;76.60;;;;;;5063481;28;20427;-46
2022/05/04 11:24:17;;;;;;;3.42;2.25;;;28.40;76.80;;;;;;5056759;28;20164;-46
2022/05/04 11:26:47;;;;;;;46.42;22.05;;;28.40;77.90;;;;;;5053216;28;20047;-46
2022/05/04 11:29:22;;;;;;;5.20;2.50;;;28.40;76.00;;;;;;5058233;28;20029;-46
2022/05/04 11:31:54;;;;;;;2.92;2.17;;;;;;;;;;5056602;28;20481;-45
2022/05/04 11:34:25;;;;;;;10.13;6.93;;;28.60;74.80;;;;;;5057334;28;20886;-45
2022/05/04 11:36:55;;;;;;;7.37;4.97;;;28.00;75.80;;;;;;5050734;28;20450;-46
2022/05/04 11:39:23;;;;;;;12.88;7.15;;;28.10;77.40;;;;;;5053152;28;20032;-46
2022/05/04 11:41:52;;;;;;;4.93;2.10;;;28.10;76.80;;;;;;5052696;28;20028;-46
2022/05/04 11:44:21;;;;;;;3.75;2.05;;;28.40;78.40;;;;;;5056387;28;20033;-46
2022/05/04 11:46:47;;;;;;;5.28;2.45;;;28.00;76.00;;;;;;5053661;28;20116;-45
2022/05/04 11:49:14;;;;;;;5.05;2.50;;;28.00;76.30;;;;;;5057867;28;20037;-47
2022/05/04 11:51:41;;;;;;;3.33;2.08;;;28.30;78.10;;;;;;5061259;28;20423;-47
2022/05/04 11:54:07;;;;;;;6.15;2.60;;;27.20;75.50;;;;;;5048182;28;20102;-46
2022/05/04 11:56:36;;;;;;;5.65;2.97;;;27.00;79.00;;;;;;5050097;28;20033;-46
2022/05/04 11:59:03;;;;;;;3.35;2.05;;;27.60;75.80;;;;;;5051968;28;20381;-46
2022/05/04 12:01:30;;;;;;;7.90;2.50;;;27.50;74.90;;;;;;5053184;28;20025;-45
2022/05/04 12:03:56;;;;;;;5.05;2.30;;;27.40;76.00;;;;;;5051236;28;20037;-45
2022/05/04 12:06:22;;;;;;;3.35;2.20;;;27.90;75.60;;;;;;5034114;28;20073;-46
2022/05/04 12:08:49;;;;;;;2.80;2.08;;;28.60;75.00;;;;;;5055828;28;20089;-46
2022/05/04 12:11:16;;;;;;;4.25;1.80;;;28.60;75.50;;;;;;5048632;28;20499;-45
2022/05/04 12:13:42;;;;;;;5.40;2.85;;;28.80;73.20;;;;;;5047379;28;20064;-46
2022/05/04 12:16:10;;;;;;;7.20;2.42;;;29.00;74.40;;;;;;5049976;28;20085;-45
2022/05/04 12:18:37;;;;;;;4.03;2.00;;;29.40;75.50;;;;;;5053017;28;20380;-46
2022/05/04 12:21:07;;;;;;;12.20;3.20;;;29.20;76.70;;;;;;5014722;28;20037;-46
2022/05/04 12:23:35;;;;;;;4.18;2.40;;;29.50;75.30;;;;;;5047440;28;20525;-46
2022/05/04 12:26:02;;;;;;;7.07;2.55;;;29.30;75.00;;;;;;5052589;28;20551;-45
2022/05/04 12:28:28;;;;;;;3.90;2.17;;;29.20;77.20;;;;;;4991369;28;20030;-46
2022/05/04 12:33:38;;;;;;;5.22;2.20;;;;;;;;;;4995668;28;20049;-46
2022/05/04 12:36:07;;;;;;;4.97;2.35;;;30.00;71.60;;;;;;5011021;28;20042;-46
2022/05/04 12:38:39;;;;;;;3.58;2.60;;;29.90;73.20;;;;;;5012594;28;20145;-46
2022/05/04 12:41:07;;;;;;;3.80;2.00;;;29.60;74.30;;;;;;4971662;28;20104;-46
2022/05/04 12:43:37;;;;;;;4.47;2.22;;;29.50;73.00;;;;;;5008632;28;20037;-46
2022/05/04 12:46:09;;;;;;;3.85;2.00;;;28.90;72.80;;;;;;5010399;28;20078;-45
2022/05/04 12:48:36;;;;;;;3.13;2.20;;;;;;;;;;5012148;28;20040;-45
2022/05/04 12:51:04;;;;;;;7.25;2.30;;;29.40;76.60;;;;;;5011345;28;20041;-46
2022/05/04 12:53:29;;;;;;;8.85;2.85;;;29.70;76.20;;;;;;5032627;28;20073;-46
2022/05/04 12:58:40;;;;;;;49.63;36.92;;;29.80;73.60;;;;;;5030677;28;20131;-46
2022/05/04 13:01:06;;;;;;;3.45;1.90;;;30.30;73.80;;;;;;5031808;28;20458;-46
2022/05/04 13:03:33;;;;;;;127.03;89.30;;;30.30;74.30;;;;;;4996354;28;20052;-46
2022/05/04 13:05:59;;;;;;;32.17;19.75;;;;;;;;;;5043151;28;20065;-46
2022/05/04 13:08:25;;;;;;;5.97;2.55;;;30.70;74.10;;;;;;5046423;28;20115;-46
2022/05/04 13:10:52;;;;;;;264.63;238.95;;;30.60;73.30;;;;;;5050871;28;20036;-46
2022/05/04 13:13:20;;;;;;;67.47;54.67;;;30.00;71.40;;;;;;5051475;28;20037;-46
2022/05/04 13:15:46;;;;;;;;;;;29.60;71.40;;;;;;5049595;28;20067;-46
2022/05/04 13:18:12;;;;;;;3.58;2.10;;;29.80;71.90;;;;;;5048889;28;20425;-46
2022/05/04 13:20:38;;;;;;;56.17;41.75;;;29.70;71.90;;;;;;5044576;28;20044;-46
2022/05/04 13:23:04;;;;;;;521.92;475.98;;;29.50;71.50;;;;;;5050019;28;20028;-45
2022/05/04 13:25:30;;;;;;;12.93;6.90;;;29.80;73.80;;;;;;5015465;28;20087;-45
2022/05/04 13:27:56;;;;;;;2.78;2.30;;;29.50;72.00;;;;;;5051106;28;20116;-45
2022/05/04 13:30:21;;;;;;;38.25;21.38;;;29.20;71.60;;;;;;5057217;28;20110;-45